Brimscombe, United Kingdom
Current Conditions -  °F | °C
As of 1:20 PM on Friday 28 Nov 2014 (Local Time) from EGBJ Reporting Station
Broken Clouds Broken Clouds  
Wind Chill: 55°   Ceiling: 1800
Heat Index: 55°   Visibility: 5mi
Dew Point: 50°   Wind: 12mph
Humidity: 82%   Direction: 80°E
Pressure: 29.59"   Gusts: NA
Location:  51.72°N, 2.19°W
Report Text: EGBJ 281320Z 08010KT 8000 SCT015 BKN018 13/10 Q1002
Loading
Personal Weather Stations






























Interactive Weather Map New forecast layout! Learn more

10-Day Weather Forecast

Advertisements
Track Severe Weather on mobile